createdAt,value
2022-09-27T00:01:06.157Z,4.15
2022-09-27T00:03:33.579Z,4.47
2022-09-27T00:06:22.059Z,4.40
2022-09-27T00:08:49.455Z,3.58
2022-09-27T00:11:39.248Z,3.72
2022-09-27T00:14:07.677Z,3.40
2022-09-27T00:16:37.934Z,3.60
2022-09-27T00:19:20.073Z,3.20
2022-09-27T00:21:48.530Z,3.55
2022-09-27T00:24:18.886Z,3.72
2022-09-27T00:26:47.203Z,2.95
2022-09-27T00:29:19.027Z,3.20
2022-09-27T00:31:46.915Z,2.80
2022-09-27T00:34:21.349Z,2.97
2022-09-27T00:36:49.650Z,3.65
2022-09-27T00:39:17.988Z,3.45
2022-09-27T00:41:45.493Z,3.30
2022-09-27T00:44:28.627Z,3.40
2022-09-27T00:47:26.416Z,3.58
2022-09-27T00:50:19.950Z,3.85
2022-09-27T00:53:04.406Z,3.47
2022-09-27T00:55:40.618Z,3.58
2022-09-27T00:58:10.339Z,3.45
2022-09-27T01:00:42.321Z,4.22
2022-09-27T01:03:11.970Z,4.20
2022-09-27T01:05:40.858Z,4.40
2022-09-27T01:08:10.095Z,4.80
2022-09-27T01:10:53.770Z,5.63
2022-09-27T01:13:34.838Z,6.18
2022-09-27T01:16:19.527Z,5.60
2022-09-27T01:19:03.082Z,5.00
2022-09-27T01:21:40.707Z,5.18
2022-09-27T01:24:28.728Z,4.20
2022-09-27T01:27:28.414Z,4.13
2022-09-27T01:30:14.574Z,4.50
2022-09-27T01:33:11.184Z,4.80
2022-09-27T01:35:57.821Z,4.95
2022-09-27T01:38:31.006Z,5.10
2022-09-27T01:41:13.904Z,4.90
2022-09-27T01:44:06.805Z,4.82
2022-09-27T01:46:52.880Z,5.07
2022-09-27T01:50:07.483Z,5.47
2022-09-27T01:52:44.939Z,5.20
2022-09-27T01:55:15.218Z,5.78
2022-09-27T01:57:56.699Z,6.10
2022-09-27T02:00:26.518Z,5.53
2022-09-27T02:03:09.032Z,5.55
2022-09-27T02:06:02.756Z,6.00
2022-09-27T02:09:18.654Z,5.18
2022-09-27T02:12:02.587Z,5.97
2022-09-27T02:14:54.790Z,5.50
2022-09-27T02:17:29.683Z,5.80
2022-09-27T02:20:19.156Z,5.43
2022-09-27T02:22:57.809Z,6.13
2022-09-27T02:25:54.910Z,6.35
2022-09-27T02:28:33.758Z,6.13
2022-09-27T02:31:01.477Z,6.15
2022-09-27T02:33:48.548Z,5.70
2022-09-27T02:36:17.520Z,5.07
2022-09-27T02:38:45.699Z,5.43
2022-09-27T02:41:23.046Z,5.90
2022-09-27T02:44:02.611Z,5.80
2022-09-27T02:47:01.792Z,6.30
2022-09-27T02:50:13.446Z,5.38
2022-09-27T02:52:54.226Z,6.78
2022-09-27T02:55:40.279Z,7.00
2022-09-27T02:58:36.209Z,6.60
2022-09-27T03:01:25.347Z,6.70
2022-09-27T03:04:37.407Z,7.28
2022-09-27T03:07:05.640Z,8.13
2022-09-27T03:09:44.731Z,7.90
2022-09-27T03:12:12.629Z,8.85
2022-09-27T03:14:40.393Z,8.65
2022-09-27T03:17:27.765Z,8.55
2022-09-27T03:20:13.883Z,9.02
2022-09-27T03:23:01.565Z,10.18
2022-09-27T03:25:29.580Z,10.52
2022-09-27T03:28:00.305Z,9.98
2022-09-27T03:30:27.786Z,10.98
2022-09-27T03:32:55.165Z,10.60
2022-09-27T03:35:42.932Z,11.63
2022-09-27T03:38:11.199Z,11.85
2022-09-27T03:40:39.724Z,12.48
2022-09-27T03:43:08.406Z,12.95
2022-09-27T03:45:35.842Z,13.68
2022-09-27T03:48:07.171Z,13.65
2022-09-27T03:50:35.292Z,14.45
2022-09-27T03:53:02.813Z,15.60
2022-09-27T03:55:31.132Z,17.20
2022-09-27T03:57:58.505Z,16.95
2022-09-27T04:00:26.144Z,17.65
2022-09-27T04:02:53.671Z,18.92
2022-09-27T04:05:25.115Z,17.85
2022-09-27T04:07:57.841Z,19.05
2022-09-27T04:10:26.046Z,18.00
2022-09-27T04:13:04.065Z,21.02
2022-09-27T04:15:39.444Z,20.45
2022-09-27T04:18:45.175Z,21.27
2022-09-27T04:21:35.745Z,18.30
2022-09-27T04:24:05.292Z,17.77
2022-09-27T04:26:34.818Z,20.65
2022-09-27T04:29:04.024Z,18.20
2022-09-27T04:31:34.281Z,17.98
2022-09-27T04:34:45.545Z,16.35
2022-09-27T04:37:14.585Z,16.50
2022-09-27T04:39:46.168Z,16.35
2022-09-27T04:42:16.825Z,13.55
2022-09-27T04:44:44.744Z,14.43
2022-09-27T04:47:13.023Z,13.88
2022-09-27T04:49:42.400Z,14.27
2022-09-27T04:52:09.991Z,14.93
2022-09-27T04:54:38.103Z,13.52
2022-09-27T04:57:12.386Z,15.55
2022-09-27T04:59:42.073Z,14.68
2022-09-27T05:02:10.871Z,14.15
2022-09-27T05:04:59.960Z,14.45
2022-09-27T05:07:35.178Z,14.65
2022-09-27T05:10:08.293Z,15.57
2022-09-27T05:12:36.924Z,15.30
2022-09-27T05:15:04.850Z,15.65
2022-09-27T05:17:53.866Z,14.55
2022-09-27T05:20:40.088Z,13.90
2022-09-27T05:23:17.374Z,13.23
2022-09-27T05:25:44.736Z,15.20
2022-09-27T05:28:14.647Z,14.63
2022-09-27T05:30:42.307Z,14.35
2022-09-27T05:33:15.622Z,15.77
2022-09-27T05:35:47.556Z,15.43
2022-09-27T05:38:15.270Z,15.48
2022-09-27T05:40:48.404Z,15.27
2022-09-27T05:43:16.786Z,13.75
2022-09-27T05:45:45.185Z,14.77
2022-09-27T05:48:14.660Z,14.90
2022-09-27T05:50:52.860Z,14.90
2022-09-27T05:53:20.463Z,13.70
2022-09-27T05:55:49.427Z,14.00
2022-09-27T05:58:19.896Z,13.80
2022-09-27T06:00:54.077Z,12.95
2022-09-27T06:03:41.061Z,12.52
2022-09-27T06:06:27.006Z,12.07
2022-09-27T06:08:57.740Z,12.35
2022-09-27T06:11:27.713Z,12.10
2022-09-27T06:13:55.190Z,12.07
2022-09-27T06:16:24.473Z,11.27
2022-09-27T06:18:52.344Z,10.40
2022-09-27T06:21:20.291Z,11.18
2022-09-27T06:23:55.864Z,11.23
2022-09-27T06:26:35.350Z,11.73
2022-09-27T06:29:15.598Z,10.95
2022-09-27T06:31:57.998Z,10.48
2022-09-27T06:34:41.943Z,10.23
2022-09-27T06:37:09.480Z,10.00
2022-09-27T06:39:37.854Z,10.60
2022-09-27T06:42:34.340Z,9.35
2022-09-27T06:45:12.121Z,9.55
2022-09-27T06:47:59.565Z,8.60
2022-09-27T06:50:41.209Z,8.68
2022-09-27T06:53:10.730Z,6.68
2022-09-27T06:55:38.850Z,6.00
2022-09-27T06:58:26.135Z,5.07
2022-09-27T07:01:28.277Z,4.50
2022-09-27T07:04:15.042Z,4.57
2022-09-27T07:06:53.651Z,5.00
2022-09-27T07:09:23.822Z,4.40
2022-09-27T07:11:51.195Z,4.30
2022-09-27T07:14:18.626Z,3.67
2022-09-27T07:16:46.193Z,3.25
2022-09-27T07:19:15.271Z,2.92
2022-09-27T07:21:46.254Z,3.50
2022-09-27T07:24:13.854Z,3.88
2022-09-27T07:26:42.394Z,2.90
2022-09-27T07:29:12.050Z,1.73
2022-09-27T07:31:39.637Z,2.30
2022-09-27T07:34:07.365Z,1.90
2022-09-27T07:36:35.377Z,1.30
2022-09-27T07:39:02.821Z,1.30
2022-09-27T07:41:33.811Z,1.42
2022-09-27T07:44:01.633Z,1.60
2022-09-27T07:46:31.622Z,1.30
2022-09-27T07:49:08.448Z,1.10
2022-09-27T07:51:57.589Z,1.90
2022-09-27T07:54:43.669Z,1.85
2022-09-27T07:57:30.059Z,2.55
2022-09-27T07:59:59.273Z,2.15
2022-09-27T08:02:26.704Z,2.20
2022-09-27T08:04:55.018Z,2.33
2022-09-27T08:07:25.611Z,1.88
2022-09-27T08:09:55.996Z,1.42
2022-09-27T08:12:24.240Z,1.70
2022-09-27T08:14:58.518Z,1.35
2022-09-27T08:17:26.003Z,1.20
2022-09-27T08:20:16.912Z,1.27
2022-09-27T08:23:07.266Z,1.50
2022-09-27T08:25:42.148Z,1.40
2022-09-27T08:28:35.924Z,0.90
2022-09-27T08:31:11.538Z,0.95
2022-09-27T08:33:41.674Z,0.70
2022-09-27T08:36:13.826Z,0.85
2022-09-27T08:38:43.131Z,1.70
2022-09-27T08:41:44.060Z,1.33
2022-09-27T08:44:12.447Z,1.00
2022-09-27T08:47:20.661Z,0.88
2022-09-27T08:50:11.509Z,1.33
2022-09-27T08:52:59.936Z,1.50
2022-09-27T08:55:38.039Z,1.45
2022-09-27T08:58:26.587Z,1.60
2022-09-27T09:03:29.073Z,1.90
2022-09-27T09:06:23.811Z,2.30
2022-09-27T09:09:37.415Z,1.98
2022-09-27T09:12:47.764Z,2.42
2022-09-27T09:15:54.788Z,2.83
2022-09-27T09:18:55.915Z,3.25
2022-09-27T09:21:42.697Z,2.83
2022-09-27T09:24:18.941Z,3.65
2022-09-27T09:27:11.030Z,3.40
2022-09-27T09:30:18.594Z,3.20
2022-09-27T09:32:49.932Z,2.97
2022-09-27T09:35:27.140Z,2.92
2022-09-27T09:38:00.223Z,3.45
2022-09-27T09:40:27.686Z,3.40
2022-09-27T09:43:24.291Z,3.40
2022-09-27T09:46:35.387Z,4.20
2022-09-27T09:49:23.213Z,4.00
2022-09-27T09:52:11.165Z,4.20
2022-09-27T09:54:50.832Z,4.25
2022-09-27T09:57:33.926Z,4.68
2022-09-27T10:00:14.348Z,5.05
2022-09-27T10:02:47.671Z,5.20
2022-09-27T10:05:26.662Z,5.15
2022-09-27T10:08:04.616Z,5.78
2022-09-27T10:10:32.611Z,5.90
2022-09-27T10:13:21.957Z,6.05
2022-09-27T10:16:02.424Z,5.88
2022-09-27T10:18:31.494Z,5.07
2022-09-27T10:21:07.356Z,5.28
2022-09-27T10:23:34.894Z,5.97
2022-09-27T10:26:19.256Z,5.95
2022-09-27T10:28:51.873Z,19.65
2022-09-27T10:31:34.210Z,6.28
2022-09-27T10:34:17.735Z,6.80
2022-09-27T10:37:17.339Z,6.68
2022-09-27T10:39:58.382Z,5.60
2022-09-27T10:42:38.661Z,5.70
2022-09-27T10:45:30.969Z,6.28
2022-09-27T10:48:02.661Z,5.97
2022-09-27T10:50:56.967Z,6.80
2022-09-27T10:53:37.133Z,9.45
2022-09-27T10:56:27.877Z,9.73
2022-09-27T10:58:56.926Z,7.87
2022-09-27T11:01:26.850Z,8.00
2022-09-27T11:04:33.645Z,7.63
2022-09-27T11:07:27.665Z,8.02
2022-09-27T11:10:15.479Z,7.88
2022-09-27T11:12:42.978Z,7.78
2022-09-27T11:15:19.181Z,8.10
2022-09-27T11:18:12.033Z,8.18
2022-09-27T11:20:58.798Z,8.23
2022-09-27T11:23:35.601Z,8.25
2022-09-27T11:26:14.743Z,8.30
2022-09-27T11:28:51.137Z,8.70
2022-09-27T11:31:50.146Z,8.15
2022-09-27T11:34:37.376Z,14.93
2022-09-27T11:37:23.675Z,8.20
2022-09-27T11:39:51.481Z,7.57
2022-09-27T11:42:50.974Z,6.95
2022-09-27T11:45:56.256Z,7.68
2022-09-27T11:48:37.913Z,36.40
2022-09-27T11:51:24.563Z,15.38
2022-09-27T11:53:59.041Z,9.70
2022-09-27T11:56:49.090Z,9.15
2022-09-27T11:59:56.395Z,8.35
2022-09-27T12:03:04.819Z,9.60
2022-09-27T12:06:07.659Z,8.27
2022-09-27T12:09:10.671Z,7.63
2022-09-27T12:11:38.093Z,7.50
2022-09-27T12:14:19.125Z,7.43
2022-09-27T12:16:51.508Z,7.50
2022-09-27T12:19:25.736Z,7.45
2022-09-27T12:22:06.634Z,7.57
2022-09-27T12:24:39.031Z,5.57
2022-09-27T12:27:43.319Z,5.70
2022-09-27T12:30:15.298Z,5.60
2022-09-27T12:33:06.761Z,5.43
2022-09-27T12:35:42.892Z,6.32
2022-09-27T12:38:13.925Z,6.97
2022-09-27T12:40:55.295Z,4.90
2022-09-27T12:43:44.774Z,5.80
2022-09-27T12:46:56.372Z,5.97
2022-09-27T12:49:57.581Z,5.90
2022-09-27T12:52:33.534Z,8.40
2022-09-27T12:55:29.920Z,7.95
2022-09-27T12:58:33.624Z,7.90
2022-09-27T13:01:25.195Z,7.43
2022-09-27T13:04:15.914Z,6.45
2022-09-27T13:07:05.566Z,8.23
2022-09-27T13:09:59.258Z,7.78
2022-09-27T13:12:30.283Z,8.15
2022-09-27T13:15:13.898Z,7.10
2022-09-27T13:17:42.181Z,7.43
2022-09-27T13:20:31.118Z,7.38
2022-09-27T13:23:01.310Z,7.15
2022-09-27T13:25:55.947Z,6.95
2022-09-27T13:29:02.253Z,8.20
2022-09-27T13:31:57.228Z,8.73
2022-09-27T13:35:25.829Z,8.27
2022-09-27T13:38:02.494Z,8.15
2022-09-27T13:40:36.605Z,7.72
2022-09-27T13:43:53.840Z,8.27
2022-09-27T13:46:33.430Z,8.13
2022-09-27T13:49:38.304Z,11.77
2022-09-27T13:52:36.271Z,8.43
2022-09-27T13:55:55.602Z,9.00
2022-09-27T13:58:41.832Z,8.52
2022-09-27T14:01:31.892Z,8.43
2022-09-27T14:04:29.234Z,8.57
2022-09-27T14:07:00.461Z,8.57
2022-09-27T14:09:43.903Z,7.63
2022-09-27T14:12:23.436Z,7.82
2022-09-27T14:14:53.130Z,8.15
2022-09-27T14:17:21.310Z,8.68
2022-09-27T14:19:50.695Z,9.05
2022-09-27T14:22:22.149Z,9.15
2022-09-27T14:25:18.345Z,8.88
2022-09-27T14:27:49.170Z,9.48
2022-09-27T14:30:24.784Z,9.45
2022-09-27T14:33:01.672Z,8.63
2022-09-27T14:36:08.143Z,9.40
2022-09-27T14:38:38.750Z,9.98
2022-09-27T14:41:17.010Z,9.07
2022-09-27T14:43:46.482Z,8.80
2022-09-27T14:46:31.662Z,9.30
2022-09-27T14:48:59.712Z,9.40
2022-09-27T14:51:30.159Z,9.63
2022-09-27T14:54:01.476Z,8.95
2022-09-27T14:56:32.512Z,11.20
2022-09-27T14:59:17.461Z,10.73
2022-09-27T15:01:54.502Z,10.30
2022-09-27T15:04:23.848Z,9.30
2022-09-27T15:06:51.811Z,11.40
2022-09-27T15:09:20.365Z,11.32
2022-09-27T15:11:54.453Z,11.35
2022-09-27T15:14:23.910Z,9.70
2022-09-27T15:16:52.782Z,9.80
2022-09-27T15:19:38.055Z,10.40
2022-09-27T15:22:35.266Z,10.90
2022-09-27T15:25:19.387Z,11.02
2022-09-27T15:27:52.586Z,10.00
2022-09-27T15:30:30.224Z,10.95
2022-09-27T15:32:58.007Z,10.93
2022-09-27T15:35:36.082Z,10.43
2022-09-27T15:38:27.507Z,11.23
2022-09-27T15:41:09.597Z,11.65
2022-09-27T15:43:51.525Z,12.73
2022-09-27T15:46:41.151Z,12.13
2022-09-27T15:49:17.773Z,13.50
2022-09-27T15:51:50.843Z,16.85
2022-09-27T15:54:19.914Z,20.63
2022-09-27T15:56:53.250Z,12.68
2022-09-27T15:59:24.282Z,11.75
2022-09-27T16:01:55.203Z,11.77
2022-09-27T16:04:24.005Z,11.88
2022-09-27T16:06:51.462Z,11.80
2022-09-27T16:09:20.351Z,12.32
2022-09-27T16:11:48.835Z,12.32
2022-09-27T16:14:18.567Z,13.95
2022-09-27T16:16:51.723Z,11.88
2022-09-27T16:19:19.345Z,12.05
2022-09-27T16:21:48.482Z,17.25
2022-09-27T16:24:17.191Z,18.85
2022-09-27T16:26:44.808Z,12.57
2022-09-27T16:29:14.457Z,12.95
2022-09-27T16:31:42.789Z,13.02
2022-09-27T16:34:11.312Z,12.27
2022-09-27T16:36:39.933Z,12.25
2022-09-27T16:39:10.895Z,12.38
2022-09-27T16:41:41.149Z,13.43
2022-09-27T16:44:13.555Z,13.30
2022-09-27T16:49:29.497Z,12.45
2022-09-27T16:52:00.240Z,11.63
2022-09-27T16:54:30.508Z,11.98
2022-09-27T16:56:59.014Z,12.85
2022-09-27T16:59:30.096Z,13.40
2022-09-27T17:01:58.168Z,12.90
2022-09-27T17:04:27.641Z,13.13
2022-09-27T17:06:56.986Z,13.02
2022-09-27T17:09:25.000Z,13.05
2022-09-27T17:11:52.510Z,13.05
2022-09-27T17:14:20.626Z,12.55
2022-09-27T17:16:48.574Z,13.93
2022-09-27T17:19:18.266Z,13.88
2022-09-27T17:21:46.295Z,14.73
2022-09-27T17:24:13.881Z,15.20
2022-09-27T17:26:41.629Z,15.05
2022-09-27T17:29:11.727Z,15.85
2022-09-27T17:31:40.726Z,15.27
2022-09-27T17:34:12.237Z,15.48
2022-09-27T17:36:43.182Z,15.80
2022-09-27T17:39:13.629Z,15.15
2022-09-27T17:41:41.208Z,15.02
2022-09-27T17:44:13.307Z,14.98
2022-09-27T17:46:41.690Z,14.93
2022-09-27T17:49:30.282Z,14.80
2022-09-27T17:51:59.124Z,16.63
2022-09-27T17:54:28.183Z,15.63
2022-09-27T17:56:56.461Z,16.17
2022-09-27T17:59:23.975Z,16.45
2022-09-27T18:01:53.271Z,15.10
2022-09-27T18:04:20.899Z,15.07
2022-09-27T18:06:48.430Z,15.68
2022-09-27T18:09:17.004Z,15.30
2022-09-27T18:11:45.251Z,15.35
2022-09-27T18:14:12.904Z,15.65
2022-09-27T18:16:43.049Z,17.17
2022-09-27T18:19:16.551Z,15.80
2022-09-27T18:21:44.452Z,16.48
2022-09-27T18:24:14.250Z,16.63
2022-09-27T18:26:42.022Z,16.40
2022-09-27T18:29:18.402Z,35.15
2022-09-27T18:31:48.980Z,17.45
2022-09-27T18:34:20.256Z,16.63
2022-09-27T18:36:47.700Z,17.52
2022-09-27T18:39:19.190Z,17.15
2022-09-27T18:41:50.741Z,16.63
2022-09-27T18:44:18.810Z,17.80
2022-09-27T18:46:46.654Z,16.25
2022-09-27T18:49:15.226Z,17.17
2022-09-27T18:51:46.193Z,16.92
2022-09-27T18:54:19.879Z,15.85
2022-09-27T18:56:48.509Z,16.05
2022-09-27T18:59:17.239Z,15.68
2022-09-27T19:01:45.899Z,15.40
2022-09-27T19:04:21.551Z,16.23
2022-09-27T19:06:51.248Z,15.45
2022-09-27T19:09:18.871Z,15.55
2022-09-27T19:11:46.438Z,15.77
2022-09-27T19:14:19.666Z,15.52
2022-09-27T19:16:48.208Z,16.02
2022-09-27T19:19:16.925Z,16.00
2022-09-27T19:21:44.951Z,16.13
2022-09-27T19:24:15.181Z,17.20
2022-09-27T19:26:42.748Z,16.50
2022-09-27T19:29:10.572Z,17.52
2022-09-27T19:31:38.048Z,16.98
2022-09-27T19:34:05.485Z,15.80
2022-09-27T19:36:32.912Z,16.45
2022-09-27T19:39:02.153Z,16.60
2022-09-27T19:41:29.847Z,16.30
2022-09-27T19:43:57.582Z,16.08
2022-09-27T19:46:25.876Z,14.93
2022-09-27T19:48:53.870Z,16.33
2022-09-27T19:51:26.737Z,15.07
2022-09-27T19:53:55.094Z,16.63
2022-09-27T19:56:23.522Z,16.95
2022-09-27T19:58:50.960Z,17.15
2022-09-27T20:01:20.297Z,18.42
2022-09-27T20:03:49.425Z,16.92
2022-09-27T20:06:18.999Z,19.33
2022-09-27T20:08:47.950Z,18.58
2022-09-27T20:11:20.745Z,18.10
2022-09-27T20:13:49.164Z,17.30
2022-09-27T20:16:19.804Z,17.40
2022-09-27T20:18:49.288Z,17.05
2022-09-27T20:21:18.654Z,16.23
2022-09-27T20:23:52.970Z,16.63
2022-09-27T20:26:22.642Z,16.08
2022-09-27T20:28:57.115Z,16.05
2022-09-27T20:31:27.234Z,15.55
2022-09-27T20:33:55.402Z,15.82
2022-09-27T20:36:28.438Z,15.00
2022-09-27T20:39:02.502Z,14.73
2022-09-27T20:41:38.663Z,14.57
2022-09-27T20:44:11.337Z,13.57
2022-09-27T20:46:40.319Z,13.02
2022-09-27T20:49:10.283Z,11.95
2022-09-27T20:51:39.929Z,10.45
2022-09-27T20:54:09.452Z,10.25
2022-09-27T20:56:42.275Z,9.50
2022-09-27T20:59:21.086Z,9.00
2022-09-27T21:01:50.923Z,8.98
2022-09-27T21:04:19.621Z,8.00
2022-09-27T21:06:47.192Z,7.03
2022-09-27T21:09:20.980Z,7.95
2022-09-27T21:11:51.823Z,6.57
2022-09-27T21:14:19.773Z,6.80
2022-09-27T21:16:47.204Z,6.72
2022-09-27T21:19:14.716Z,6.15
2022-09-27T21:21:42.278Z,6.13
2022-09-27T21:24:09.881Z,5.85
2022-09-27T21:26:37.452Z,5.72
2022-09-27T21:29:09.642Z,6.30
2022-09-27T21:31:38.210Z,5.95
2022-09-27T21:34:06.263Z,5.15
2022-09-27T21:36:38.219Z,5.40
2022-09-27T21:39:08.557Z,5.95
2022-09-27T21:41:36.799Z,5.53
2022-09-27T21:44:05.393Z,6.10
2022-09-27T21:46:33.229Z,5.32
2022-09-27T21:49:02.041Z,5.28
2022-09-27T21:51:36.909Z,4.82
2022-09-27T21:54:07.499Z,5.78
2022-09-27T21:56:37.504Z,5.35
2022-09-27T21:59:06.061Z,5.03
2022-09-27T22:01:34.806Z,4.72
2022-09-27T22:04:04.172Z,5.68
2022-09-27T22:06:34.030Z,4.97
2022-09-27T22:09:03.051Z,4.60
2022-09-27T22:11:36.798Z,5.80
2022-09-27T22:14:06.814Z,6.18
2022-09-27T22:16:34.376Z,5.82
2022-09-27T22:19:01.897Z,5.82
2022-09-27T22:21:31.625Z,4.97
2022-09-27T22:24:06.517Z,5.55
2022-09-27T22:26:37.469Z,5.35
2022-09-27T22:29:06.065Z,5.82
2022-09-27T22:31:34.216Z,5.80
2022-09-27T22:34:04.680Z,5.47
2022-09-27T22:36:33.563Z,5.43
2022-09-27T22:39:01.358Z,5.40
2022-09-27T22:41:30.569Z,5.07
2022-09-27T22:43:58.269Z,6.00
2022-09-27T22:46:25.749Z,5.65
2022-09-27T22:48:53.384Z,5.55
2022-09-27T22:51:20.826Z,6.88
2022-09-27T22:53:48.338Z,5.57
2022-09-27T22:56:18.565Z,5.45
2022-09-27T22:58:47.693Z,5.18
2022-09-27T23:01:23.553Z,6.25
2022-09-27T23:03:53.268Z,5.82
2022-09-27T23:06:21.834Z,5.85
2022-09-27T23:08:50.100Z,7.20
2022-09-27T23:11:19.655Z,6.53
2022-09-27T23:13:48.311Z,6.35
2022-09-27T23:16:18.338Z,6.95
2022-09-27T23:18:47.711Z,7.05
2022-09-27T23:21:17.018Z,5.97
2022-09-27T23:23:45.952Z,7.10
2022-09-27T23:26:15.572Z,7.63
2022-09-27T23:28:43.130Z,7.28
2022-09-27T23:31:13.575Z,7.30
2022-09-27T23:33:43.366Z,7.75
2022-09-27T23:36:16.214Z,7.53
2022-09-27T23:38:45.762Z,8.30
2022-09-27T23:41:14.653Z,7.90
2022-09-27T23:43:42.489Z,8.30
2022-09-27T23:46:10.429Z,7.70
2022-09-27T23:48:38.477Z,7.97
2022-09-27T23:51:08.422Z,8.25
2022-09-27T23:53:36.573Z,8.32
2022-09-27T23:56:14.310Z,8.60
2022-09-27T23:58:44.914Z,8.77
